sensor_id;sensor_type;location;lat;lon;timestamp;P1;durP1;ratioP1;P2;durP2;ratioP2
40453;SDS011;26160;51.858;4.398;2023-02-28T00:00:23;3.55;;;2.05;;
40453;SDS011;26160;51.858;4.398;2023-02-28T00:02:49;5.97;;;2.50;;
40453;SDS011;26160;51.858;4.398;2023-02-28T00:05:19;7.90;;;2.27;;
40453;SDS011;26160;51.858;4.398;2023-02-28T00:07:47;3.90;;;2.10;;
40453;SDS011;26160;51.858;4.398;2023-02-28T00:10:18;6.90;;;2.83;;
40453;SDS011;26160;51.858;4.398;2023-02-28T00:12:49;4.82;;;2.47;;
40453;SDS011;26160;51.858;4.398;2023-02-28T00:15:16;11.60;;;5.07;;
40453;SDS011;26160;51.858;4.398;2023-02-28T00:17:43;9.70;;;4.33;;
40453;SDS011;26160;51.858;4.398;2023-02-28T00:20:09;8.33;;;4.43;;
40453;SDS011;26160;51.858;4.398;2023-02-28T00:22:42;11.00;;;4.07;;
40453;SDS011;26160;51.858;4.398;2023-02-28T00:25:21;8.67;;;2.67;;
40453;SDS011;26160;51.858;4.398;2023-02-28T00:27:48;7.60;;;3.07;;
40453;SDS011;26160;51.858;4.398;2023-02-28T00:30:18;6.10;;;2.60;;
40453;SDS011;26160;51.858;4.398;2023-02-28T00:32:46;5.63;;;2.67;;
40453;SDS011;26160;51.858;4.398;2023-02-28T00:35:12;9.00;;;2.80;;
40453;SDS011;26160;51.858;4.398;2023-02-28T00:37:40;3.97;;;2.37;;
40453;SDS011;26160;51.858;4.398;2023-02-28T00:40:07;6.93;;;2.80;;
40453;SDS011;26160;51.858;4.398;2023-02-28T00:42:35;7.83;;;2.87;;
40453;SDS011;26160;51.858;4.398;2023-02-28T00:45:02;5.77;;;2.93;;
40453;SDS011;26160;51.858;4.398;2023-02-28T00:47:30;5.17;;;3.20;;
40453;SDS011;26160;51.858;4.398;2023-02-28T00:49:57;7.33;;;3.23;;
40453;SDS011;26160;51.858;4.398;2023-02-28T00:52:23;7.67;;;3.53;;
40453;SDS011;26160;51.858;4.398;2023-02-28T00:54:50;7.67;;;3.70;;
40453;SDS011;26160;51.858;4.398;2023-02-28T00:57:16;8.80;;;4.17;;
40453;SDS011;26160;51.858;4.398;2023-02-28T00:59:42;6.83;;;4.10;;
40453;SDS011;26160;51.858;4.398;2023-02-28T01:02:08;6.97;;;4.17;;
40453;SDS011;26160;51.858;4.398;2023-02-28T01:04:34;6.93;;;3.47;;
40453;SDS011;26160;51.858;4.398;2023-02-28T01:07:00;4.63;;;2.80;;
40453;SDS011;26160;51.858;4.398;2023-02-28T01:09:27;8.43;;;3.27;;
40453;SDS011;26160;51.858;4.398;2023-02-28T01:11:54;5.23;;;2.73;;
40453;SDS011;26160;51.858;4.398;2023-02-28T01:14:20;4.83;;;2.97;;
40453;SDS011;26160;51.858;4.398;2023-02-28T01:16:46;6.80;;;3.10;;
40453;SDS011;26160;51.858;4.398;2023-02-28T01:19:12;5.83;;;3.13;;
40453;SDS011;26160;51.858;4.398;2023-02-28T01:21:38;8.57;;;3.20;;
40453;SDS011;26160;51.858;4.398;2023-02-28T01:24:05;6.53;;;2.80;;
40453;SDS011;26160;51.858;4.398;2023-02-28T01:26:32;4.37;;;2.70;;
40453;SDS011;26160;51.858;4.398;2023-02-28T01:28:58;5.73;;;2.90;;
40453;SDS011;26160;51.858;4.398;2023-02-28T01:31:24;8.90;;;3.33;;
40453;SDS011;26160;51.858;4.398;2023-02-28T01:33:51;9.53;;;2.73;;
40453;SDS011;26160;51.858;4.398;2023-02-28T01:36:18;7.47;;;2.80;;
40453;SDS011;26160;51.858;4.398;2023-02-28T01:38:48;5.77;;;2.80;;
40453;SDS011;26160;51.858;4.398;2023-02-28T01:41:24;8.83;;;3.00;;
40453;SDS011;26160;51.858;4.398;2023-02-28T01:44:00;4.83;;;2.60;;
40453;SDS011;26160;51.858;4.398;2023-02-28T01:46:33;6.90;;;2.73;;
40453;SDS011;26160;51.858;4.398;2023-02-28T01:49:02;4.73;;;2.90;;
40453;SDS011;26160;51.858;4.398;2023-02-28T01:51:35;7.23;;;2.73;;
40453;SDS011;26160;51.858;4.398;2023-02-28T01:54:12;3.50;;;2.00;;
40453;SDS011;26160;51.858;4.398;2023-02-28T01:56:44;3.60;;;2.43;;
40453;SDS011;26160;51.858;4.398;2023-02-28T02:00:05;6.13;;;2.37;;
40453;SDS011;26160;51.858;4.398;2023-02-28T02:05:09;9.40;;;2.50;;
40453;SDS011;26160;51.858;4.398;2023-02-28T02:07:48;6.70;;;2.70;;
40453;SDS011;26160;51.858;4.398;2023-02-28T02:10:30;4.90;;;2.47;;
40453;SDS011;26160;51.858;4.398;2023-02-28T02:15:56;4.53;;;2.70;;
40453;SDS011;26160;51.858;4.398;2023-02-28T02:28:09;5.73;;;2.53;;
40453;SDS011;26160;51.858;4.398;2023-02-28T02:49:49;6.57;;;2.50;;
40453;SDS011;26160;51.858;4.398;2023-02-28T02:52:22;5.90;;;2.70;;
40453;SDS011;26160;51.858;4.398;2023-02-28T02:54:55;5.67;;;3.10;;
40453;SDS011;26160;51.858;4.398;2023-02-28T03:00:33;5.10;;;3.10;;
40453;SDS011;26160;51.858;4.398;2023-02-28T03:03:09;9.00;;;3.23;;
40453;SDS011;26160;51.858;4.398;2023-02-28T03:05:48;4.87;;;2.90;;
40453;SDS011;26160;51.858;4.398;2023-02-28T03:08:27;6.27;;;3.03;;
40453;SDS011;26160;51.858;4.398;2023-02-28T03:19:42;5.83;;;3.40;;
40453;SDS011;26160;51.858;4.398;2023-02-28T03:23:07;8.67;;;3.37;;
40453;SDS011;26160;51.858;4.398;2023-02-28T03:28:49;9.27;;;3.10;;
40453;SDS011;26160;51.858;4.398;2023-02-28T03:34:35;7.47;;;3.07;;
40453;SDS011;26160;51.858;4.398;2023-02-28T03:37:19;7.80;;;3.07;;
40453;SDS011;26160;51.858;4.398;2023-02-28T03:45:37;7.80;;;3.40;;
40453;SDS011;26160;51.858;4.398;2023-02-28T03:51:23;8.20;;;3.37;;
40453;SDS011;26160;51.858;4.398;2023-02-28T03:53:59;7.03;;;3.30;;
40453;SDS011;26160;51.858;4.398;2023-02-28T03:56:45;7.35;;;3.75;;
40453;SDS011;26160;51.858;4.398;2023-02-28T04:02:25;7.25;;;3.67;;
40453;SDS011;26160;51.858;4.398;2023-02-28T04:04:56;6.53;;;3.73;;
40453;SDS011;26160;51.858;4.398;2023-02-28T04:07:33;9.07;;;3.70;;
40453;SDS011;26160;51.858;4.398;2023-02-28T04:10:04;6.80;;;3.90;;
40453;SDS011;26160;51.858;4.398;2023-02-28T04:12:46;5.77;;;3.57;;
40453;SDS011;26160;51.858;4.398;2023-02-28T04:15:25;6.87;;;3.83;;
40453;SDS011;26160;51.858;4.398;2023-02-28T04:17:58;6.13;;;3.73;;
40453;SDS011;26160;51.858;4.398;2023-02-28T04:20:28;6.37;;;3.53;;
40453;SDS011;26160;51.858;4.398;2023-02-28T04:23:03;6.83;;;4.17;;
40453;SDS011;26160;51.858;4.398;2023-02-28T04:25:39;6.50;;;3.70;;
40453;SDS011;26160;51.858;4.398;2023-02-28T04:28:32;8.90;;;4.20;;
40453;SDS011;26160;51.858;4.398;2023-02-28T04:37:02;4.57;;;3.10;;
40453;SDS011;26160;51.858;4.398;2023-02-28T04:39:37;7.40;;;4.00;;
40453;SDS011;26160;51.858;4.398;2023-02-28T04:42:16;7.57;;;3.90;;
40453;SDS011;26160;51.858;4.398;2023-02-28T04:44:43;7.90;;;4.37;;
40453;SDS011;26160;51.858;4.398;2023-02-28T04:47:17;6.87;;;4.60;;
40453;SDS011;26160;51.858;4.398;2023-02-28T04:50:00;8.00;;;4.30;;
40453;SDS011;26160;51.858;4.398;2023-02-28T05:03:07;8.30;;;5.10;;
40453;SDS011;26160;51.858;4.398;2023-02-28T05:05:39;8.13;;;4.80;;
40453;SDS011;26160;51.858;4.398;2023-02-28T05:08:08;8.77;;;5.30;;
40453;SDS011;26160;51.858;4.398;2023-02-28T05:16:04;8.87;;;5.40;;
40453;SDS011;26160;51.858;4.398;2023-02-28T05:18:45;8.97;;;5.20;;
40453;SDS011;26160;51.858;4.398;2023-02-28T05:27:09;10.73;;;5.70;;
40453;SDS011;26160;51.858;4.398;2023-02-28T05:32:49;10.20;;;6.13;;
40453;SDS011;26160;51.858;4.398;2023-02-28T05:38:10;9.57;;;5.50;;
40453;SDS011;26160;51.858;4.398;2023-02-28T05:43:15;8.40;;;4.90;;
40453;SDS011;26160;51.858;4.398;2023-02-28T05:45:42;8.30;;;5.43;;
40453;SDS011;26160;51.858;4.398;2023-02-28T05:48:16;7.67;;;5.33;;
40453;SDS011;26160;51.858;4.398;2023-02-28T06:04:29;8.03;;;4.93;;
40453;SDS011;26160;51.858;4.398;2023-02-28T06:09:39;10.37;;;5.73;;
40453;SDS011;26160;51.858;4.398;2023-02-28T06:12:06;7.90;;;5.47;;
40453;SDS011;26160;51.858;4.398;2023-02-28T06:14:35;9.93;;;4.93;;
40453;SDS011;26160;51.858;4.398;2023-02-28T06:17:02;8.97;;;4.63;;
40453;SDS011;26160;51.858;4.398;2023-02-28T06:19:30;7.03;;;4.37;;
40453;SDS011;26160;51.858;4.398;2023-02-28T06:21:56;9.17;;;4.27;;
40453;SDS011;26160;51.858;4.398;2023-02-28T06:27:02;7.37;;;3.67;;
40453;SDS011;26160;51.858;4.398;2023-02-28T06:29:37;9.40;;;3.30;;
40453;SDS011;26160;51.858;4.398;2023-02-28T06:32:05;4.53;;;3.20;;
40453;SDS011;26160;51.858;4.398;2023-02-28T06:34:31;7.67;;;3.67;;
40453;SDS011;26160;51.858;4.398;2023-02-28T06:37:00;6.90;;;4.10;;
40453;SDS011;26160;51.858;4.398;2023-02-28T06:39:32;7.17;;;4.20;;
40453;SDS011;26160;51.858;4.398;2023-02-28T06:41:59;7.37;;;3.93;;
40453;SDS011;26160;51.858;4.398;2023-02-28T06:44:45;6.43;;;3.70;;
40453;SDS011;26160;51.858;4.398;2023-02-28T07:21:36;5.20;;;3.63;;
40453;SDS011;26160;51.858;4.398;2023-02-28T07:29:41;10.00;;;4.70;;
40453;SDS011;26160;51.858;4.398;2023-02-28T07:32:25;9.50;;;4.83;;
40453;SDS011;26160;51.858;4.398;2023-02-28T07:40:16;7.17;;;4.40;;
40453;SDS011;26160;51.858;4.398;2023-02-28T07:46:06;6.53;;;4.93;;
40453;SDS011;26160;51.858;4.398;2023-02-28T07:48:34;6.27;;;5.10;;
40453;SDS011;26160;51.858;4.398;2023-02-28T07:51:01;8.97;;;6.13;;
40453;SDS011;26160;51.858;4.398;2023-02-28T07:53:28;6.70;;;5.10;;
40453;SDS011;26160;51.858;4.398;2023-02-28T07:56:00;9.67;;;6.67;;
40453;SDS011;26160;51.858;4.398;2023-02-28T08:00:54;11.67;;;6.47;;
40453;SDS011;26160;51.858;4.398;2023-02-28T08:03:21;10.37;;;7.53;;
40453;SDS011;26160;51.858;4.398;2023-02-28T08:05:49;14.57;;;7.50;;
40453;SDS011;26160;51.858;4.398;2023-02-28T08:08:15;9.13;;;7.13;;
40453;SDS011;26160;51.858;4.398;2023-02-28T08:10:42;9.20;;;6.30;;
40453;SDS011;26160;51.858;4.398;2023-02-28T08:13:08;8.53;;;6.37;;
40453;SDS011;26160;51.858;4.398;2023-02-28T08:15:35;9.27;;;6.30;;
40453;SDS011;26160;51.858;4.398;2023-02-28T08:18:01;10.77;;;7.87;;
40453;SDS011;26160;51.858;4.398;2023-02-28T08:20:28;11.60;;;7.57;;
40453;SDS011;26160;51.858;4.398;2023-02-28T08:22:54;10.20;;;6.97;;
40453;SDS011;26160;51.858;4.398;2023-02-28T08:25:20;10.43;;;7.53;;
40453;SDS011;26160;51.858;4.398;2023-02-28T08:27:46;10.07;;;7.83;;
40453;SDS011;26160;51.858;4.398;2023-02-28T08:30:13;11.57;;;7.77;;
40453;SDS011;26160;51.858;4.398;2023-02-28T08:32:44;14.87;;;9.77;;
40453;SDS011;26160;51.858;4.398;2023-02-28T08:35:18;13.83;;;8.93;;
40453;SDS011;26160;51.858;4.398;2023-02-28T08:40:15;11.20;;;7.43;;
40453;SDS011;26160;51.858;4.398;2023-02-28T08:42:45;13.03;;;7.90;;
40453;SDS011;26160;51.858;4.398;2023-02-28T08:53:22;11.15;;;6.65;;
40453;SDS011;26160;51.858;4.398;2023-02-28T08:58:46;5.83;;;4.80;;
40453;SDS011;26160;51.858;4.398;2023-02-28T09:03:49;5.23;;;3.40;;
40453;SDS011;26160;51.858;4.398;2023-02-28T09:06:17;6.53;;;3.37;;
40453;SDS011;26160;51.858;4.398;2023-02-28T09:08:44;7.63;;;3.33;;
40453;SDS011;26160;51.858;4.398;2023-02-28T09:11:11;10.67;;;3.83;;
40453;SDS011;26160;51.858;4.398;2023-02-28T09:13:37;5.57;;;3.40;;
40453;SDS011;26160;51.858;4.398;2023-02-28T09:16:06;8.93;;;4.00;;
40453;SDS011;26160;51.858;4.398;2023-02-28T09:18:35;10.07;;;3.87;;
40453;SDS011;26160;51.858;4.398;2023-02-28T09:21:12;4.67;;;3.00;;
40453;SDS011;26160;51.858;4.398;2023-02-28T09:23:41;6.10;;;3.40;;
40453;SDS011;26160;51.858;4.398;2023-02-28T09:26:11;6.60;;;3.60;;
40453;SDS011;26160;51.858;4.398;2023-02-28T09:28:56;5.20;;;3.70;;
40453;SDS011;26160;51.858;4.398;2023-02-28T09:31:25;5.73;;;3.93;;
40453;SDS011;26160;51.858;4.398;2023-02-28T09:33:54;11.67;;;4.30;;
40453;SDS011;26160;51.858;4.398;2023-02-28T09:36:22;8.77;;;4.00;;
40453;SDS011;26160;51.858;4.398;2023-02-28T09:38:50;7.20;;;3.83;;
40453;SDS011;26160;51.858;4.398;2023-02-28T09:43:50;6.83;;;4.20;;
40453;SDS011;26160;51.858;4.398;2023-02-28T09:46:26;6.60;;;4.30;;
40453;SDS011;26160;51.858;4.398;2023-02-28T09:49:06;7.00;;;3.90;;
40453;SDS011;26160;51.858;4.398;2023-02-28T09:54:20;5.47;;;4.03;;
40453;SDS011;26160;51.858;4.398;2023-02-28T09:56:50;8.30;;;4.13;;
40453;SDS011;26160;51.858;4.398;2023-02-28T10:05:14;7.13;;;3.83;;
40453;SDS011;26160;51.858;4.398;2023-02-28T10:15:54;5.00;;;3.73;;
40453;SDS011;26160;51.858;4.398;2023-02-28T10:18:27;7.13;;;3.57;;
40453;SDS011;26160;51.858;4.398;2023-02-28T10:21:09;10.63;;;3.20;;
40453;SDS011;26160;51.858;4.398;2023-02-28T10:23:45;4.30;;;3.23;;
40453;SDS011;26160;51.858;4.398;2023-02-28T10:26:13;5.27;;;3.10;;
40453;SDS011;26160;51.858;4.398;2023-02-28T10:28:42;6.30;;;2.60;;
40453;SDS011;26160;51.858;4.398;2023-02-28T10:31:16;5.27;;;2.90;;
40453;SDS011;26160;51.858;4.398;2023-02-28T10:33:44;5.70;;;3.20;;
40453;SDS011;26160;51.858;4.398;2023-02-28T10:36:15;6.47;;;3.17;;
40453;SDS011;26160;51.858;4.398;2023-02-28T10:41:14;3.80;;;2.60;;
40453;SDS011;26160;51.858;4.398;2023-02-28T10:44:13;5.87;;;2.83;;
40453;SDS011;26160;51.858;4.398;2023-02-28T10:46:40;3.30;;;2.57;;
40453;SDS011;26160;51.858;4.398;2023-02-28T10:49:17;6.13;;;2.83;;
40453;SDS011;26160;51.858;4.398;2023-02-28T10:51:47;3.10;;;2.47;;
40453;SDS011;26160;51.858;4.398;2023-02-28T10:54:22;2.60;;;2.40;;
40453;SDS011;26160;51.858;4.398;2023-02-28T10:59:50;4.03;;;2.10;;
40453;SDS011;26160;51.858;4.398;2023-02-28T11:02:32;3.50;;;2.13;;
40453;SDS011;26160;51.858;4.398;2023-02-28T11:05:25;3.57;;;2.27;;
40453;SDS011;26160;51.858;4.398;2023-02-28T11:07:54;3.00;;;2.33;;
40453;SDS011;26160;51.858;4.398;2023-02-28T11:10:23;3.70;;;2.72;;
40453;SDS011;26160;51.858;4.398;2023-02-28T11:12:55;4.10;;;2.20;;
40453;SDS011;26160;51.858;4.398;2023-02-28T11:15:23;2.80;;;2.20;;
40453;SDS011;26160;51.858;4.398;2023-02-28T11:18:05;2.40;;;1.97;;
40453;SDS011;26160;51.858;4.398;2023-02-28T11:20:37;2.87;;;1.93;;
40453;SDS011;26160;51.858;4.398;2023-02-28T11:23:05;1.90;;;1.60;;
40453;SDS011;26160;51.858;4.398;2023-02-28T11:25:39;2.73;;;1.77;;
40453;SDS011;26160;51.858;4.398;2023-02-28T11:28:06;2.43;;;1.97;;
40453;SDS011;26160;51.858;4.398;2023-02-28T11:36:23;2.73;;;1.60;;
40453;SDS011;26160;51.858;4.398;2023-02-28T11:38:53;1.93;;;1.40;;
40453;SDS011;26160;51.858;4.398;2023-02-28T11:44:30;2.00;;;1.40;;
40453;SDS011;26160;51.858;4.398;2023-02-28T11:47:30;2.45;;;1.73;;
40453;SDS011;26160;51.858;4.398;2023-02-28T11:50:07;1.63;;;1.23;;
40453;SDS011;26160;51.858;4.398;2023-02-28T12:06:30;3.70;;;1.60;;
40453;SDS011;26160;51.858;4.398;2023-02-28T12:09:20;1.63;;;1.50;;
40453;SDS011;26160;51.858;4.398;2023-02-28T12:26:36;2.47;;;1.50;;
40453;SDS011;26160;51.858;4.398;2023-02-28T12:31:46;3.33;;;1.60;;
40453;SDS011;26160;51.858;4.398;2023-02-28T13:31:28;2.20;;;1.73;;
40453;SDS011;26160;51.858;4.398;2023-02-28T13:57:55;2.53;;;1.70;;
40453;SDS011;26160;51.858;4.398;2023-02-28T14:46:17;2.13;;;1.50;;
40453;SDS011;26160;51.858;4.398;2023-02-28T14:48:49;4.43;;;1.77;;
40453;SDS011;26160;51.858;4.398;2023-02-28T14:51:20;6.00;;;1.93;;
40453;SDS011;26160;51.858;4.398;2023-02-28T14:53:51;2.73;;;1.87;;
40453;SDS011;26160;51.858;4.398;2023-02-28T14:56:24;4.18;;;2.03;;
40453;SDS011;26160;51.858;4.398;2023-02-28T14:59:04;2.87;;;1.90;;
40453;SDS011;26160;51.858;4.398;2023-02-28T15:01:44;2.10;;;1.83;;
40453;SDS011;26160;51.858;4.398;2023-02-28T15:04:16;2.83;;;1.87;;
40453;SDS011;26160;51.858;4.398;2023-02-28T15:18:58;2.07;;;1.73;;
40453;SDS011;26160;51.858;4.398;2023-02-28T15:21:32;2.20;;;1.70;;
40453;SDS011;26160;51.858;4.398;2023-02-28T15:24:16;3.10;;;1.90;;
40453;SDS011;26160;51.858;4.398;2023-02-28T15:26:51;5.63;;;1.90;;
40453;SDS011;26160;51.858;4.398;2023-02-28T15:29:23;2.53;;;1.80;;
40453;SDS011;26160;51.858;4.398;2023-02-28T15:31:58;4.10;;;1.87;;
40453;SDS011;26160;51.858;4.398;2023-02-28T15:39:53;2.73;;;1.90;;
40453;SDS011;26160;51.858;4.398;2023-02-28T15:42:22;2.73;;;1.97;;
40453;SDS011;26160;51.858;4.398;2023-02-28T15:44:57;2.40;;;1.80;;
40453;SDS011;26160;51.858;4.398;2023-02-28T15:47:26;2.80;;;1.70;;
40453;SDS011;26160;51.858;4.398;2023-02-28T15:49:59;1.87;;;1.63;;
40453;SDS011;26160;51.858;4.398;2023-02-28T15:52:28;2.23;;;1.70;;
40453;SDS011;26160;51.858;4.398;2023-02-28T15:55:20;5.93;;;2.13;;
40453;SDS011;26160;51.858;4.398;2023-02-28T15:57:53;3.57;;;2.03;;
40453;SDS011;26160;51.858;4.398;2023-02-28T16:00:23;1.83;;;1.73;;
40453;SDS011;26160;51.858;4.398;2023-02-28T16:02:50;2.63;;;1.87;;
40453;SDS011;26160;51.858;4.398;2023-02-28T16:05:29;2.50;;;1.87;;
40453;SDS011;26160;51.858;4.398;2023-02-28T16:07:58;2.10;;;1.90;;
40453;SDS011;26160;51.858;4.398;2023-02-28T16:10:39;2.57;;;1.97;;
40453;SDS011;26160;51.858;4.398;2023-02-28T16:13:05;2.37;;;1.93;;
40453;SDS011;26160;51.858;4.398;2023-02-28T16:15:34;3.10;;;2.20;;
40453;SDS011;26160;51.858;4.398;2023-02-28T16:18:08;2.57;;;1.80;;
40453;SDS011;26160;51.858;4.398;2023-02-28T16:20:36;2.63;;;1.97;;
40453;SDS011;26160;51.858;4.398;2023-02-28T16:23:03;4.87;;;2.00;;
40453;SDS011;26160;51.858;4.398;2023-02-28T16:25:39;3.50;;;2.07;;
40453;SDS011;26160;51.858;4.398;2023-02-28T16:28:08;2.83;;;1.90;;
40453;SDS011;26160;51.858;4.398;2023-02-28T16:30:43;3.07;;;2.07;;
40453;SDS011;26160;51.858;4.398;2023-02-28T16:33:09;2.20;;;1.83;;
40453;SDS011;26160;51.858;4.398;2023-02-28T16:35:35;2.40;;;1.90;;
40453;SDS011;26160;51.858;4.398;2023-02-28T16:38:01;3.63;;;2.10;;
40453;SDS011;26160;51.858;4.398;2023-02-28T16:40:27;7.13;;;2.50;;
40453;SDS011;26160;51.858;4.398;2023-02-28T16:42:59;3.15;;;2.47;;
40453;SDS011;26160;51.858;4.398;2023-02-28T16:45:29;3.20;;;2.00;;
40453;SDS011;26160;51.858;4.398;2023-02-28T16:47:55;3.30;;;2.20;;
40453;SDS011;26160;51.858;4.398;2023-02-28T16:50:26;3.33;;;2.53;;
40453;SDS011;26160;51.858;4.398;2023-02-28T16:52:53;3.00;;;2.20;;
40453;SDS011;26160;51.858;4.398;2023-02-28T16:55:20;6.80;;;2.77;;
40453;SDS011;26160;51.858;4.398;2023-02-28T16:57:50;4.37;;;3.07;;
40453;SDS011;26160;51.858;4.398;2023-02-28T17:00:18;6.00;;;4.87;;
40453;SDS011;26160;51.858;4.398;2023-02-28T17:02:45;6.80;;;5.30;;
40453;SDS011;26160;51.858;4.398;2023-02-28T17:21:36;4.77;;;2.97;;
40453;SDS011;26160;51.858;4.398;2023-02-28T17:27:10;9.38;;;2.83;;
40453;SDS011;26160;51.858;4.398;2023-02-28T18:11:15;5.87;;;4.83;;
40453;SDS011;26160;51.858;4.398;2023-02-28T18:13:53;6.90;;;4.80;;
40453;SDS011;26160;51.858;4.398;2023-02-28T18:19:54;5.20;;;4.03;;
40453;SDS011;26160;51.858;4.398;2023-02-28T18:25:29;8.30;;;4.13;;
40453;SDS011;26160;51.858;4.398;2023-02-28T18:34:16;4.67;;;3.77;;
40453;SDS011;26160;51.858;4.398;2023-02-28T19:00:01;12.50;;;7.77;;
40453;SDS011;26160;51.858;4.398;2023-02-28T19:02:27;23.40;;;10.97;;
40453;SDS011;26160;51.858;4.398;2023-02-28T19:04:57;22.97;;;11.67;;
40453;SDS011;26160;51.858;4.398;2023-02-28T19:07:23;19.33;;;10.43;;
40453;SDS011;26160;51.858;4.398;2023-02-28T19:09:49;15.40;;;7.50;;
40453;SDS011;26160;51.858;4.398;2023-02-28T19:12:16;11.03;;;7.10;;
40453;SDS011;26160;51.858;4.398;2023-02-28T19:14:45;9.70;;;5.87;;
40453;SDS011;26160;51.858;4.398;2023-02-28T19:17:15;7.27;;;5.40;;
40453;SDS011;26160;51.858;4.398;2023-02-28T19:19:41;9.27;;;5.33;;
40453;SDS011;26160;51.858;4.398;2023-02-28T19:22:07;9.70;;;5.10;;
40453;SDS011;26160;51.858;4.398;2023-02-28T19:24:33;5.77;;;4.70;;
40453;SDS011;26160;51.858;4.398;2023-02-28T19:27:00;5.67;;;4.87;;
40453;SDS011;26160;51.858;4.398;2023-02-28T19:29:27;7.10;;;4.70;;
40453;SDS011;26160;51.858;4.398;2023-02-28T19:35:24;7.87;;;5.27;;
40453;SDS011;26160;51.858;4.398;2023-02-28T19:40:37;16.57;;;8.13;;
40453;SDS011;26160;51.858;4.398;2023-02-28T19:48:15;76.60;;;30.27;;
40453;SDS011;26160;51.858;4.398;2023-02-28T19:50:41;36.90;;;16.83;;
40453;SDS011;26160;51.858;4.398;2023-02-28T19:53:08;30.30;;;16.47;;
40453;SDS011;26160;51.858;4.398;2023-02-28T19:55:34;23.80;;;13.20;;
40453;SDS011;26160;51.858;4.398;2023-02-28T19:58:00;31.13;;;18.57;;
40453;SDS011;26160;51.858;4.398;2023-02-28T20:00:26;32.87;;;19.40;;
40453;SDS011;26160;51.858;4.398;2023-02-28T20:02:52;21.97;;;14.37;;
40453;SDS011;26160;51.858;4.398;2023-02-28T20:05:18;21.53;;;13.47;;
40453;SDS011;26160;51.858;4.398;2023-02-28T20:07:44;18.63;;;10.23;;
40453;SDS011;26160;51.858;4.398;2023-02-28T20:10:10;16.70;;;9.30;;
40453;SDS011;26160;51.858;4.398;2023-02-28T20:12:36;13.50;;;9.13;;
40453;SDS011;26160;51.858;4.398;2023-02-28T20:15:03;15.30;;;9.90;;
40453;SDS011;26160;51.858;4.398;2023-02-28T20:20:15;10.27;;;7.83;;
40453;SDS011;26160;51.858;4.398;2023-02-28T20:22:48;11.20;;;7.23;;
40453;SDS011;26160;51.858;4.398;2023-02-28T20:25:17;12.18;;;8.10;;
40453;SDS011;26160;51.858;4.398;2023-02-28T20:27:43;10.37;;;7.57;;
40453;SDS011;26160;51.858;4.398;2023-02-28T20:30:15;10.43;;;7.40;;
40453;SDS011;26160;51.858;4.398;2023-02-28T20:32:41;14.15;;;8.15;;
40453;SDS011;26160;51.858;4.398;2023-02-28T20:35:08;13.93;;;8.07;;
40453;SDS011;26160;51.858;4.398;2023-02-28T20:37:39;13.47;;;8.00;;
40453;SDS011;26160;51.858;4.398;2023-02-28T20:40:15;11.27;;;7.77;;
40453;SDS011;26160;51.858;4.398;2023-02-28T20:42:41;12.83;;;7.90;;
40453;SDS011;26160;51.858;4.398;2023-02-28T20:45:07;12.93;;;8.07;;
40453;SDS011;26160;51.858;4.398;2023-02-28T20:47:34;11.57;;;8.37;;
40453;SDS011;26160;51.858;4.398;2023-02-28T20:50:00;13.57;;;10.00;;
40453;SDS011;26160;51.858;4.398;2023-02-28T20:52:26;15.67;;;9.83;;
40453;SDS011;26160;51.858;4.398;2023-02-28T20:54:52;12.60;;;8.83;;
40453;SDS011;26160;51.858;4.398;2023-02-28T20:57:18;15.83;;;9.77;;
40453;SDS011;26160;51.858;4.398;2023-02-28T20:59:44;18.30;;;9.80;;
40453;SDS011;26160;51.858;4.398;2023-02-28T21:02:13;17.60;;;9.60;;
40453;SDS011;26160;51.858;4.398;2023-02-28T21:04:41;13.33;;;10.60;;
40453;SDS011;26160;51.858;4.398;2023-02-28T21:07:07;13.43;;;9.73;;
40453;SDS011;26160;51.858;4.398;2023-02-28T21:09:33;15.83;;;10.97;;
40453;SDS011;26160;51.858;4.398;2023-02-28T21:11:59;14.20;;;10.23;;
40453;SDS011;26160;51.858;4.398;2023-02-28T21:14:25;14.57;;;10.63;;
40453;SDS011;26160;51.858;4.398;2023-02-28T21:16:51;15.77;;;11.00;;
40453;SDS011;26160;51.858;4.398;2023-02-28T21:19:18;15.27;;;11.00;;
40453;SDS011;26160;51.858;4.398;2023-02-28T21:21:44;15.07;;;12.03;;
40453;SDS011;26160;51.858;4.398;2023-02-28T21:24:16;17.00;;;11.90;;
40453;SDS011;26160;51.858;4.398;2023-02-28T21:26:43;16.43;;;12.53;;
40453;SDS011;26160;51.858;4.398;2023-02-28T21:29:11;15.53;;;11.13;;
40453;SDS011;26160;51.858;4.398;2023-02-28T21:31:38;18.17;;;11.67;;
40453;SDS011;26160;51.858;4.398;2023-02-28T21:34:06;16.57;;;11.20;;
40453;SDS011;26160;51.858;4.398;2023-02-28T21:36:35;17.53;;;11.67;;
40453;SDS011;26160;51.858;4.398;2023-02-28T21:39:18;16.90;;;12.47;;
40453;SDS011;26160;51.858;4.398;2023-02-28T21:41:47;19.27;;;13.68;;
40453;SDS011;26160;51.858;4.398;2023-02-28T21:44:17;18.53;;;14.00;;
40453;SDS011;26160;51.858;4.398;2023-02-28T21:46:46;17.23;;;12.30;;
40453;SDS011;26160;51.858;4.398;2023-02-28T21:49:14;17.43;;;13.97;;
40453;SDS011;26160;51.858;4.398;2023-02-28T21:51:41;18.83;;;14.57;;
40453;SDS011;26160;51.858;4.398;2023-02-28T21:54:08;16.57;;;12.90;;
40453;SDS011;26160;51.858;4.398;2023-02-28T21:56:35;22.67;;;14.20;;
40453;SDS011;26160;51.858;4.398;2023-02-28T21:59:02;19.57;;;14.33;;
40453;SDS011;26160;51.858;4.398;2023-02-28T22:01:32;20.87;;;14.57;;
40453;SDS011;26160;51.858;4.398;2023-02-28T22:04:00;21.23;;;14.07;;
40453;SDS011;26160;51.858;4.398;2023-02-28T22:06:28;20.30;;;13.87;;
40453;SDS011;26160;51.858;4.398;2023-02-28T22:08:58;19.33;;;15.20;;
40453;SDS011;26160;51.858;4.398;2023-02-28T22:11:26;20.37;;;14.60;;
40453;SDS011;26160;51.858;4.398;2023-02-28T22:13:54;21.07;;;14.40;;
40453;SDS011;26160;51.858;4.398;2023-02-28T22:16:22;19.90;;;13.60;;
40453;SDS011;26160;51.858;4.398;2023-02-28T22:18:49;19.37;;;14.93;;
40453;SDS011;26160;51.858;4.398;2023-02-28T22:21:17;19.07;;;14.90;;
40453;SDS011;26160;51.858;4.398;2023-02-28T22:23:44;20.40;;;14.37;;
40453;SDS011;26160;51.858;4.398;2023-02-28T22:26:12;20.83;;;14.70;;
40453;SDS011;26160;51.858;4.398;2023-02-28T22:28:40;19.67;;;15.10;;
40453;SDS011;26160;51.858;4.398;2023-02-28T22:33:47;18.53;;;15.07;;
40453;SDS011;26160;51.858;4.398;2023-02-28T22:36:15;20.80;;;15.07;;
40453;SDS011;26160;51.858;4.398;2023-02-28T22:38:42;22.83;;;15.33;;
40453;SDS011;26160;51.858;4.398;2023-02-28T22:41:09;23.53;;;16.63;;
40453;SDS011;26160;51.858;4.398;2023-02-28T22:43:39;22.93;;;15.23;;
40453;SDS011;26160;51.858;4.398;2023-02-28T22:46:07;21.20;;;15.47;;
40453;SDS011;26160;51.858;4.398;2023-02-28T22:48:34;22.67;;;15.67;;
40453;SDS011;26160;51.858;4.398;2023-02-28T22:51:01;23.73;;;17.03;;
40453;SDS011;26160;51.858;4.398;2023-02-28T22:53:33;23.80;;;17.70;;
40453;SDS011;26160;51.858;4.398;2023-02-28T22:56:00;20.80;;;16.37;;
40453;SDS011;26160;51.858;4.398;2023-02-28T22:58:27;24.03;;;17.00;;
40453;SDS011;26160;51.858;4.398;2023-02-28T23:00:53;21.63;;;15.87;;
40453;SDS011;26160;51.858;4.398;2023-02-28T23:03:23;21.57;;;15.17;;
40453;SDS011;26160;51.858;4.398;2023-02-28T23:05:50;23.07;;;16.83;;
40453;SDS011;26160;51.858;4.398;2023-02-28T23:08:18;20.20;;;15.93;;
40453;SDS011;26160;51.858;4.398;2023-02-28T23:10:48;23.17;;;17.20;;
40453;SDS011;26160;51.858;4.398;2023-02-28T23:13:16;22.00;;;17.50;;
40453;SDS011;26160;51.858;4.398;2023-02-28T23:15:43;24.90;;;18.13;;
40453;SDS011;26160;51.858;4.398;2023-02-28T23:18:09;24.47;;;18.17;;
40453;SDS011;26160;51.858;4.398;2023-02-28T23:20:36;23.63;;;18.33;;
40453;SDS011;26160;51.858;4.398;2023-02-28T23:23:02;23.67;;;17.90;;
40453;SDS011;26160;51.858;4.398;2023-02-28T23:25:31;28.00;;;20.47;;
40453;SDS011;26160;51.858;4.398;2023-02-28T23:27:57;26.73;;;19.20;;
40453;SDS011;26160;51.858;4.398;2023-02-28T23:30:24;28.67;;;20.67;;